Edward G. Pitka Sr Airport
PAGA : rendu visible

Aérodrome :











RETROUVEZ-NOUS SUR...

 
LOGIN :

S'inscrire | Disclaimer

   EN    FR    IT 

 









Légende :    VFR   VFR Marginal   IFR   IFR Intensif   IFR Très Intensif
Visi : 
Plafond : 
>= 8 km
>= 3000ft
5 à 8 km
1000 à 3000 ft
1500m à 5 km
500 à 1000 ft
800 à 1500m
200 à 500 ft
< 800m
< 200 ft
Symboles :   Orages  Brouillard  Fortes neiges  Fortes précipitations  Vent > 20 kt






- Altitude de l'aérodrome : 153 ft
- Code IATA : GAL


PAGA - Edward G. Pitka Sr

DERNIER METAR :
  • 091256Z 11004KT 10SM CLR M19/M21 A3029 RMK AO2 SLP263 T11941211 FZRANO

METARs EXPIRÉS :
  • 091156Z 16003KT 10SM CLR M21/M23 A3027 RMK AO2 SLP256 T12111228 11117 21211 51020 FZRANO
  • 091056Z 00000KT 10SM CLR M18/M20 A3026 RMK AO2 SLP251 T11781200 FZRANO

TAF PAGA
Valide du 09 à 12h jusqu'au 10 à 12h UTC


091133Z 0912/1012 00000KT P6SM SKC
FM091700 17004KT P6SM BCFG BKN050
FM100300 13008KT 1 1/2SM -SN BR OVC015
FM100800 16012KT 4SM -SN BR OVC020



MET'MAP, la Météo Aéronautique d'un coup d'oeil ! - Copyright ORBIFLY Décembre 2007 - Disclaimer

ORBIFLY MET'MAP TEAM :

Programmation & Développement : Alexandra Zaïnal
Sur une idée originale de : Baudouin d'Aumeries
Assistance à la programmation : Marc-Olivier Méhu
Soutien technique & logistique : Manuel Goepfert

Contact : metmap@orbifly.com




SOURCES & CREDITS :

   NOAA       Earth
Advisory